sensor_id;sensor_type;location;lat;lon;timestamp;pressure;altitude;pressure_sealevel;temperature;humidity
29505;BME280;16452;54.174;12.092;2022-12-04T00:01:54;102369.81;;;2.64;98.45
29505;BME280;16452;54.174;12.092;2022-12-04T00:04:20;102369.88;;;2.73;98.41
29505;BME280;16452;54.174;12.092;2022-12-04T00:06:45;102374.94;;;2.63;99.28
29505;BME280;16452;54.174;12.092;2022-12-04T00:09:11;102383.59;;;2.72;99.41
29505;BME280;16452;54.174;12.092;2022-12-04T00:11:37;102378.34;;;2.60;99.18
29505;BME280;16452;54.174;12.092;2022-12-04T00:14:03;102380.06;;;2.60;99.12
29505;BME280;16452;54.174;12.092;2022-12-04T00:16:29;102383.38;;;2.43;98.98
29505;BME280;16452;54.174;12.092;2022-12-04T00:18:56;102385.28;;;2.67;99.28
29505;BME280;16452;54.174;12.092;2022-12-04T00:21:23;102387.69;;;2.51;99.38
29505;BME280;16452;54.174;12.092;2022-12-04T00:23:50;102380.09;;;2.66;98.93
29505;BME280;16452;54.174;12.092;2022-12-04T00:26:20;102388.69;;;2.66;98.76
29505;BME280;16452;54.174;12.092;2022-12-04T00:28:49;102381.00;;;2.74;99.71
29505;BME280;16452;54.174;12.092;2022-12-04T00:31:20;102381.06;;;2.78;99.91
29505;BME280;16452;54.174;12.092;2022-12-04T00:33:46;102379.22;;;2.64;99.86
29505;BME280;16452;54.174;12.092;2022-12-04T00:36:15;102383.59;;;2.72;100.00
29505;BME280;16452;54.174;12.092;2022-12-04T00:38:42;102380.09;;;2.61;100.00
29505;BME280;16452;54.174;12.092;2022-12-04T00:41:12;102376.00;;;2.97;99.36
29505;BME280;16452;54.174;12.092;2022-12-04T00:43:38;102375.91;;;2.78;99.78
29505;BME280;16452;54.174;12.092;2022-12-04T00:46:04;102374.00;;;2.52;100.00
29505;BME280;16452;54.174;12.092;2022-12-04T00:48:30;102370.56;;;2.51;100.00
29505;BME280;16452;54.174;12.092;2022-12-04T00:51:04;102371.34;;;2.38;100.00
29505;BME280;16452;54.174;12.092;2022-12-04T00:53:31;102367.16;;;2.52;100.00
29505;BME280;16452;54.174;12.092;2022-12-04T00:55:57;102362.88;;;2.54;100.00
29505;BME280;16452;54.174;12.092;2022-12-04T00:58:22;102368.13;;;2.74;100.00
29505;BME280;16452;54.174;12.092;2022-12-04T01:00:48;102364.47;;;2.37;100.00
29505;BME280;16452;54.174;12.092;2022-12-04T01:03:14;102360.28;;;2.48;100.00
29505;BME280;16452;54.174;12.092;2022-12-04T01:05:44;102360.31;;;2.57;100.00
29505;BME280;16452;54.174;12.092;2022-12-04T01:08:11;102354.31;;;2.55;100.00
29505;BME280;16452;54.174;12.092;2022-12-04T01:10:40;102353.63;;;2.82;100.00
29505;BME280;16452;54.174;12.092;2022-12-04T01:13:06;102351.78;;;2.63;100.00
29505;BME280;16452;54.174;12.092;2022-12-04T01:15:32;102355.19;;;2.59;100.00
29505;BME280;16452;54.174;12.092;2022-12-04T01:17:57;102347.44;;;2.54;100.00
29505;BME280;16452;54.174;12.092;2022-12-04T01:20:23;102353.50;;;2.62;100.00
29505;BME280;16452;54.174;12.092;2022-12-04T01:22:49;102360.28;;;2.53;100.00
29505;BME280;16452;54.174;12.092;2022-12-04T01:25:14;102353.63;;;2.82;100.00
29505;BME280;16452;54.174;12.092;2022-12-04T01:27:40;102352.59;;;2.57;100.00
29505;BME280;16452;54.174;12.092;2022-12-04T01:30:06;102346.66;;;2.61;100.00
29505;BME280;16452;54.174;12.092;2022-12-04T01:32:32;102347.44;;;2.50;100.00
29505;BME280;16452;54.174;12.092;2022-12-04T01:34:58;102343.91;;;2.40;100.00
29505;BME280;16452;54.174;12.092;2022-12-04T01:37:24;102333.69;;;2.51;100.00
29505;BME280;16452;54.174;12.092;2022-12-04T01:39:50;102335.34;;;2.36;100.00
29505;BME280;16452;54.174;12.092;2022-12-04T01:42:16;102342.19;;;2.36;100.00
29505;BME280;16452;54.174;12.092;2022-12-04T01:45:24;102336.41;;;2.72;100.00
29505;BME280;16452;54.174;12.092;2022-12-04T01:47:29;102344.91;;;2.59;100.00
29505;BME280;16452;54.174;12.092;2022-12-04T01:49:55;102342.25;;;2.43;100.00
29505;BME280;16452;54.174;12.092;2022-12-04T01:52:25;102341.50;;;2.63;100.00
29505;BME280;16452;54.174;12.092;2022-12-04T01:54:57;102351.88;;;2.73;100.00
29505;BME280;16452;54.174;12.092;2022-12-04T01:57:27;102349.88;;;2.34;100.00
29505;BME280;16452;54.174;12.092;2022-12-04T02:00:03;102343.22;;;2.64;100.00
29505;BME280;16452;54.174;12.092;2022-12-04T02:02:35;102349.03;;;2.35;100.00
29505;BME280;16452;54.174;12.092;2022-12-04T02:05:04;102347.16;;;2.16;100.00
29505;BME280;16452;54.174;12.092;2022-12-04T02:07:30;102339.63;;;2.36;100.00
29505;BME280;16452;54.174;12.092;2022-12-04T02:09:57;102344.72;;;2.30;100.00
29505;BME280;16452;54.174;12.092;2022-12-04T02:12:46;102337.97;;;2.47;100.00
29505;BME280;16452;54.174;12.092;2022-12-04T02:15:23;102342.41;;;2.68;100.00
29505;BME280;16452;54.174;12.092;2022-12-04T02:17:57;102335.47;;;2.56;100.00
29505;BME280;16452;54.174;12.092;2022-12-04T02:32:03;102331.03;;;2.35;100.00
29505;BME280;16452;54.174;12.092;2022-12-04T02:34:53;102333.69;;;2.44;100.00
29505;BME280;16452;54.174;12.092;2022-12-04T02:37:39;102324.34;;;2.60;100.00
29505;BME280;16452;54.174;12.092;2022-12-04T02:43:16;102328.59;;;2.58;100.00
29505;BME280;16452;54.174;12.092;2022-12-04T02:45:55;102324.44;;;2.80;100.00
29505;BME280;16452;54.174;12.092;2022-12-04T02:48:22;102328.69;;;2.72;100.00
29505;BME280;16452;54.174;12.092;2022-12-04T02:50:52;102314.88;;;2.58;100.00
29505;BME280;16452;54.174;12.092;2022-12-04T02:53:30;102322.66;;;2.65;100.00
29505;BME280;16452;54.174;12.092;2022-12-04T02:56:07;102322.59;;;2.58;100.00
29505;BME280;16452;54.174;12.092;2022-12-04T02:58:57;102327.72;;;2.53;100.00
29505;BME280;16452;54.174;12.092;2022-12-04T03:01:30;102319.88;;;2.32;100.00
29505;BME280;16452;54.174;12.092;2022-12-04T03:06:33;102325.97;;;2.46;100.00
29505;BME280;16452;54.174;12.092;2022-12-04T03:09:12;102326.06;;;2.64;100.00
29505;BME280;16452;54.174;12.092;2022-12-04T03:11:44;102327.63;;;2.36;100.00
29505;BME280;16452;54.174;12.092;2022-12-04T03:14:24;102318.31;;;2.54;100.00
29505;BME280;16452;54.174;12.092;2022-12-04T03:17:00;102319.19;;;2.63;100.00
29505;BME280;16452;54.174;12.092;2022-12-04T03:19:42;102325.34;;;2.89;100.00
29505;BME280;16452;54.174;12.092;2022-12-04T03:22:16;102326.22;;;2.95;100.00
29505;BME280;16452;54.174;12.092;2022-12-04T03:24:55;102321.16;;;3.13;100.00
29505;BME280;16452;54.174;12.092;2022-12-04T03:28:16;102324.56;;;3.10;100.00
29505;BME280;16452;54.174;12.092;2022-12-04T03:30:53;102328.78;;;2.93;100.00
29505;BME280;16452;54.174;12.092;2022-12-04T03:33:31;102310.81;;;3.01;100.00
29505;BME280;16452;54.174;12.092;2022-12-04T03:36:18;102320.22;;;2.89;100.00
29505;BME280;16452;54.174;12.092;2022-12-04T03:39:14;102327.06;;;2.89;100.00
29505;BME280;16452;54.174;12.092;2022-12-04T03:41:59;102321.06;;;2.93;100.00
29505;BME280;16452;54.174;12.092;2022-12-04T03:44:55;102320.22;;;2.91;100.00
29505;BME280;16452;54.174;12.092;2022-12-04T03:48:04;102309.13;;;3.06;100.00
29505;BME280;16452;54.174;12.092;2022-12-04T03:50:38;102317.66;;;3.03;100.00
29505;BME280;16452;54.174;12.092;2022-12-04T03:53:21;102304.00;;;3.13;100.00
29505;BME280;16452;54.174;12.092;2022-12-04T03:56:11;102313.38;;;3.01;100.00
29505;BME280;16452;54.174;12.092;2022-12-04T03:58:44;102307.44;;;3.17;100.00
29505;BME280;16452;54.174;12.092;2022-12-04T04:01:12;102297.94;;;2.96;100.00
29505;BME280;16452;54.174;12.092;2022-12-04T04:03:47;102292.03;;;3.35;100.00
29505;BME280;16452;54.174;12.092;2022-12-04T04:06:23;102297.19;;;3.34;100.00
29505;BME280;16452;54.174;12.092;2022-12-04T04:08:54;102302.31;;;3.18;100.00
29505;BME280;16452;54.174;12.092;2022-12-04T04:12:14;102297.16;;;3.18;100.00
29505;BME280;16452;54.174;12.092;2022-12-04T04:14:48;102294.50;;;2.99;100.00
29505;BME280;16452;54.174;12.092;2022-12-04T04:17:40;102293.69;;;3.15;100.00
29505;BME280;16452;54.174;12.092;2022-12-04T04:20:40;102285.97;;;3.12;100.00
29505;BME280;16452;54.174;12.092;2022-12-04T04:23:28;102285.13;;;3.26;100.00
29505;BME280;16452;54.174;12.092;2022-12-04T04:26:14;102286.03;;;3.41;100.00
29505;BME280;16452;54.174;12.092;2022-12-04T04:28:42;102288.56;;;3.13;100.00
29505;BME280;16452;54.174;12.092;2022-12-04T04:34:42;102289.47;;;3.46;100.00
29505;BME280;16452;54.174;12.092;2022-12-04T04:37:38;102290.34;;;3.46;100.00
29505;BME280;16452;54.174;12.092;2022-12-04T04:40:32;102284.34;;;3.62;100.00
29505;BME280;16452;54.174;12.092;2022-12-04T04:43:09;102292.06;;;3.46;100.00
29505;BME280;16452;54.174;12.092;2022-12-04T04:48:22;102289.47;;;3.37;100.00
29505;BME280;16452;54.174;12.092;2022-12-04T04:50:51;102289.47;;;3.26;100.00
29505;BME280;16452;54.174;12.092;2022-12-04T04:53:22;102298.91;;;3.44;100.00
29505;BME280;16452;54.174;12.092;2022-12-04T04:55:51;102294.59;;;3.29;100.00
29505;BME280;16452;54.174;12.092;2022-12-04T04:58:19;102297.13;;;3.12;100.00
29505;BME280;16452;54.174;12.092;2022-12-04T05:01:04;102300.63;;;3.29;100.00
29505;BME280;16452;54.174;12.092;2022-12-04T05:03:32;102293.69;;;3.12;100.00
29505;BME280;16452;54.174;12.092;2022-12-04T05:05:58;102291.19;;;3.36;100.00
29505;BME280;16452;54.174;12.092;2022-12-04T05:08:24;102282.53;;;3.16;100.00
29505;BME280;16452;54.174;12.092;2022-12-04T05:10:50;102287.75;;;3.34;100.00
29505;BME280;16452;54.174;12.092;2022-12-04T05:13:16;102292.06;;;3.46;100.00
29505;BME280;16452;54.174;12.092;2022-12-04T05:15:43;102304.06;;;3.45;100.00
29505;BME280;16452;54.174;12.092;2022-12-04T05:18:09;102299.81;;;3.49;100.00
29505;BME280;16452;54.174;12.092;2022-12-04T05:20:39;102306.56;;;3.16;100.00
29505;BME280;16452;54.174;12.092;2022-12-04T05:23:05;102300.59;;;3.25;100.00
29505;BME280;16452;54.174;12.092;2022-12-04T05:25:31;102303.16;;;3.22;100.00
29505;BME280;16452;54.174;12.092;2022-12-04T05:27:57;102299.72;;;3.17;100.00
29505;BME280;16452;54.174;12.092;2022-12-04T05:30:23;102306.63;;;3.39;100.00
29505;BME280;16452;54.174;12.092;2022-12-04T05:32:49;102300.66;;;3.46;100.00
29505;BME280;16452;54.174;12.092;2022-12-04T05:35:14;102298.91;;;3.30;100.00
29505;BME280;16452;54.174;12.092;2022-12-04T05:37:44;102303.22;;;3.52;100.00
29505;BME280;16452;54.174;12.092;2022-12-04T05:40:10;102287.78;;;3.49;100.00
29505;BME280;16452;54.174;12.092;2022-12-04T05:42:36;102292.03;;;3.30;100.00
29505;BME280;16452;54.174;12.092;2022-12-04T05:45:02;102302.25;;;3.06;100.00
29505;BME280;16452;54.174;12.092;2022-12-04T05:47:28;102304.00;;;3.21;100.00
29505;BME280;16452;54.174;12.092;2022-12-04T05:49:53;102298.84;;;3.10;100.00
29505;BME280;16452;54.174;12.092;2022-12-04T05:52:19;102304.03;;;3.22;100.00
29505;BME280;16452;54.174;12.092;2022-12-04T05:54:45;102296.28;;;3.13;100.00
29505;BME280;16452;54.174;12.092;2022-12-04T05:57:11;102295.41;;;3.16;100.00
29505;BME280;16452;54.174;12.092;2022-12-04T05:59:36;102296.28;;;3.18;100.00
29505;BME280;16452;54.174;12.092;2022-12-04T06:02:02;102303.94;;;2.97;100.00
29505;BME280;16452;54.174;12.092;2022-12-04T06:04:28;102299.72;;;3.12;100.00
29505;BME280;16452;54.174;12.092;2022-12-04T06:06:54;102296.31;;;3.19;100.00
29505;BME280;16452;54.174;12.092;2022-12-04T06:09:20;102298.91;;;3.45;100.00
29505;BME280;16452;54.174;12.092;2022-12-04T06:11:46;102303.22;;;3.52;100.00
29505;BME280;16452;54.174;12.092;2022-12-04T06:14:14;102291.16;;;3.22;100.00
29505;BME280;16452;54.174;12.092;2022-12-04T06:16:44;102292.00;;;3.21;100.00
29505;BME280;16452;54.174;12.092;2022-12-04T06:19:17;102296.28;;;3.12;100.00
29505;BME280;16452;54.174;12.092;2022-12-04T06:21:46;102296.28;;;3.16;100.00
29505;BME280;16452;54.174;12.092;2022-12-04T06:24:19;102293.75;;;3.35;100.00
29505;BME280;16452;54.174;12.092;2022-12-04T06:26:45;102291.97;;;3.09;100.00
29505;BME280;16452;54.174;12.092;2022-12-04T06:29:12;102292.84;;;3.14;100.00
29505;BME280;16452;54.174;12.092;2022-12-04T06:31:38;102299.75;;;3.34;100.00
29505;BME280;16452;54.174;12.092;2022-12-04T06:34:05;102300.63;;;3.45;100.00
29505;BME280;16452;54.174;12.092;2022-12-04T06:36:31;102295.53;;;3.66;100.00
29505;BME280;16452;54.174;12.092;2022-12-04T06:38:57;102298.97;;;3.65;100.00
29505;BME280;16452;54.174;12.092;2022-12-04T06:41:25;102310.09;;;3.47;100.00
29505;BME280;16452;54.174;12.092;2022-12-04T06:43:51;102304.94;;;3.52;100.00
29505;BME280;16452;54.174;12.092;2022-12-04T06:46:23;102303.25;;;3.58;100.00
29505;BME280;16452;54.174;12.092;2022-12-04T06:48:49;102306.63;;;3.35;100.00
29505;BME280;16452;54.174;12.092;2022-12-04T06:51:24;102310.06;;;3.38;100.00
29505;BME280;16452;54.174;12.092;2022-12-04T06:53:50;102309.19;;;3.35;100.00
29505;BME280;16452;54.174;12.092;2022-12-04T06:56:19;102310.88;;;3.26;100.00
29505;BME280;16452;54.174;12.092;2022-12-04T06:58:53;102313.50;;;3.39;100.00
29505;BME280;16452;54.174;12.092;2022-12-04T07:01:22;102313.53;;;3.48;100.00
29505;BME280;16452;54.174;12.092;2022-12-04T07:03:49;102316.88;;;3.22;100.00
29505;BME280;16452;54.174;12.092;2022-12-04T07:06:26;102304.84;;;3.15;100.00
29505;BME280;16452;54.174;12.092;2022-12-04T07:08:58;102311.78;;;3.30;100.00
29505;BME280;16452;54.174;12.092;2022-12-04T07:11:24;102309.22;;;3.36;100.00
29505;BME280;16452;54.174;12.092;2022-12-04T07:13:50;102304.97;;;3.49;100.00
29505;BME280;16452;54.174;12.092;2022-12-04T07:16:19;102310.06;;;3.44;100.00
29505;BME280;16452;54.174;12.092;2022-12-04T07:18:45;102317.72;;;3.08;100.00
29505;BME280;16452;54.174;12.092;2022-12-04T07:21:16;102317.81;;;3.41;100.00
29505;BME280;16452;54.174;12.092;2022-12-04T07:23:43;102318.66;;;3.37;100.00
29505;BME280;16452;54.174;12.092;2022-12-04T07:26:12;102313.50;;;3.36;100.00
29505;BME280;16452;54.174;12.092;2022-12-04T07:28:39;102314.38;;;3.45;100.00
29505;BME280;16452;54.174;12.092;2022-12-04T07:31:07;102316.97;;;3.56;100.00
29505;BME280;16452;54.174;12.092;2022-12-04T07:33:33;102316.13;;;3.58;100.00
29505;BME280;16452;54.174;12.092;2022-12-04T07:36:02;102306.72;;;3.77;100.00
29505;BME280;16452;54.174;12.092;2022-12-04T07:38:29;102309.25;;;3.79;100.00
29505;BME280;16452;54.174;12.092;2022-12-04T07:40:56;102306.69;;;3.63;100.00
29505;BME280;16452;54.174;12.092;2022-12-04T07:43:23;102302.38;;;3.62;100.00
29505;BME280;16452;54.174;12.092;2022-12-04T07:45:49;102303.25;;;3.58;100.00
29505;BME280;16452;54.174;12.092;2022-12-04T07:48:14;102313.56;;;3.58;100.00
29505;BME280;16452;54.174;12.092;2022-12-04T07:50:40;102302.38;;;3.73;100.00
29505;BME280;16452;54.174;12.092;2022-12-04T07:53:06;102308.41;;;3.87;100.00
29505;BME280;16452;54.174;12.092;2022-12-04T07:55:31;102309.28;;;3.94;100.00
29505;BME280;16452;54.174;12.092;2022-12-04T07:57:57;102311.88;;;4.01;100.00
29505;BME280;16452;54.174;12.092;2022-12-04T08:00:23;102298.13;;;3.95;100.00
29505;BME280;16452;54.174;12.092;2022-12-04T08:02:49;102301.53;;;3.97;100.00
29505;BME280;16452;54.174;12.092;2022-12-04T08:05:15;102309.28;;;4.10;100.00
29505;BME280;16452;54.174;12.092;2022-12-04T08:07:41;102304.97;;;4.22;100.00
29505;BME280;16452;54.174;12.092;2022-12-04T08:10:08;102312.69;;;4.22;100.00
29505;BME280;16452;54.174;12.092;2022-12-04T08:12:34;102303.28;;;3.89;100.00
29505;BME280;16452;54.174;12.092;2022-12-04T08:15:00;102311.88;;;3.94;100.00
29505;BME280;16452;54.174;12.092;2022-12-04T08:17:26;102316.16;;;4.10;100.00
29505;BME280;16452;54.174;12.092;2022-12-04T08:19:52;102311.88;;;3.95;100.00
29505;BME280;16452;54.174;12.092;2022-12-04T08:22:18;102310.13;;;3.87;100.00
29505;BME280;16452;54.174;12.092;2022-12-04T08:24:44;102305.84;;;4.02;100.00
29505;BME280;16452;54.174;12.092;2022-12-04T08:27:09;102301.56;;;3.88;100.00
29505;BME280;16452;54.174;12.092;2022-12-04T08:29:35;102306.69;;;4.03;100.00
29505;BME280;16452;54.174;12.092;2022-12-04T08:32:02;102313.59;;;4.05;100.00
29505;BME280;16452;54.174;12.092;2022-12-04T08:34:28;102313.59;;;4.13;100.00
29505;BME280;16452;54.174;12.092;2022-12-04T08:36:54;102302.38;;;4.29;100.00
29505;BME280;16452;54.174;12.092;2022-12-04T08:39:20;102306.69;;;4.35;100.00
29505;BME280;16452;54.174;12.092;2022-12-04T08:41:45;102305.81;;;4.27;100.00
29505;BME280;16452;54.174;12.092;2022-12-04T08:44:11;102312.72;;;4.23;100.00
29505;BME280;16452;54.174;12.092;2022-12-04T08:46:37;102313.56;;;4.16;100.00
29505;BME280;16452;54.174;12.092;2022-12-04T08:49:04;102306.69;;;4.20;100.00
29505;BME280;16452;54.174;12.092;2022-12-04T08:51:31;102308.41;;;4.30;100.00
29505;BME280;16452;54.174;12.092;2022-12-04T08:54:02;102301.47;;;4.50;100.00
29505;BME280;16452;54.174;12.092;2022-12-04T08:56:30;102307.53;;;4.32;100.00
29505;BME280;16452;54.174;12.092;2022-12-04T08:58:57;102310.13;;;4.31;100.00
29505;BME280;16452;54.174;12.092;2022-12-04T09:01:24;102316.16;;;4.13;100.00
29505;BME280;16452;54.174;12.092;2022-12-04T09:03:51;102315.28;;;4.23;100.00
29505;BME280;16452;54.174;12.092;2022-12-04T09:06:17;102317.00;;;4.42;100.00
29505;BME280;16452;54.174;12.092;2022-12-04T09:08:43;102308.38;;;4.45;100.00
29505;BME280;16452;54.174;12.092;2022-12-04T09:11:19;102311.78;;;4.48;100.00
29505;BME280;16452;54.174;12.092;2022-12-04T09:13:46;102315.28;;;4.41;100.00
29505;BME280;16452;54.174;12.092;2022-12-04T09:16:15;102310.97;;;4.46;100.00
29505;BME280;16452;54.174;12.092;2022-12-04T09:18:42;102321.28;;;4.40;100.00
29505;BME280;16452;54.174;12.092;2022-12-04T09:21:12;102308.41;;;4.36;100.00
29505;BME280;16452;54.174;12.092;2022-12-04T09:23:38;102317.78;;;4.61;100.00
29505;BME280;16452;54.174;12.092;2022-12-04T09:26:13;102318.63;;;4.66;100.00
29505;BME280;16452;54.174;12.092;2022-12-04T09:28:40;102313.50;;;4.51;100.00
29505;BME280;16452;54.174;12.092;2022-12-04T09:31:06;102317.78;;;4.64;100.00
29505;BME280;16452;54.174;12.092;2022-12-04T09:33:32;102316.06;;;4.62;100.00
29505;BME280;16452;54.174;12.092;2022-12-04T09:35:59;102319.50;;;4.64;100.00
29505;BME280;16452;54.174;12.092;2022-12-04T09:38:26;102317.75;;;4.79;100.00
29505;BME280;16452;54.174;12.092;2022-12-04T09:41:30;102322.91;;;4.82;100.00
29505;BME280;16452;54.174;12.092;2022-12-04T09:55:34;102296.19;;;4.85;100.00
29505;BME280;16452;54.174;12.092;2022-12-04T09:58:05;102303.06;;;4.90;100.00
29505;BME280;16452;54.174;12.092;2022-12-04T10:00:37;102291.00;;;5.00;100.00
29505;BME280;16452;54.174;12.092;2022-12-04T10:03:14;102300.50;;;4.84;100.00
29505;BME280;16452;54.174;12.092;2022-12-04T10:06:11;102285.81;;;5.02;100.00
29505;BME280;16452;54.174;12.092;2022-12-04T10:08:45;102278.97;;;4.94;100.00
29505;BME280;16452;54.174;12.092;2022-12-04T10:17:17;102282.38;;;5.00;100.00
29505;BME280;16452;54.174;12.092;2022-12-04T10:20:11;102268.56;;;5.07;100.00
29505;BME280;16452;54.174;12.092;2022-12-04T10:25:25;102267.59;;;5.26;100.00
29505;BME280;16452;54.174;12.092;2022-12-04T10:28:23;102269.28;;;5.31;100.00
29505;BME280;16452;54.174;12.092;2022-12-04T10:30:53;102269.38;;;5.18;100.00
29505;BME280;16452;54.174;12.092;2022-12-04T10:33:43;102262.44;;;5.24;100.00
29505;BME280;16452;54.174;12.092;2022-12-04T10:36:18;102262.47;;;5.23;100.00
29505;BME280;16452;54.174;12.092;2022-12-04T10:38:52;102262.28;;;5.49;100.00
29505;BME280;16452;54.174;12.092;2022-12-04T10:41:56;102252.84;;;5.46;100.00
29505;BME280;16452;54.174;12.092;2022-12-04T10:44:24;102252.94;;;5.29;100.00
29505;BME280;16452;54.174;12.092;2022-12-04T10:46:58;102256.31;;;5.37;100.00
29505;BME280;16452;54.174;12.092;2022-12-04T10:49:33;102251.88;;;5.56;100.00
29505;BME280;16452;54.174;12.092;2022-12-04T10:52:01;102251.13;;;5.44;100.00
29505;BME280;16452;54.174;12.092;2022-12-04T10:54:34;102243.28;;;5.56;100.00
29505;BME280;16452;54.174;12.092;2022-12-04T10:57:06;102241.63;;;5.47;100.00
29505;BME280;16452;54.174;12.092;2022-12-04T10:59:32;102240.66;;;5.60;100.00
29505;BME280;16452;54.174;12.092;2022-12-04T11:02:22;102234.56;;;5.70;100.00
29505;BME280;16452;54.174;12.092;2022-12-04T11:05:06;102228.44;;;5.82;100.00
29505;BME280;16452;54.174;12.092;2022-12-04T11:07:44;102231.84;;;5.83;100.00
29505;BME280;16452;54.174;12.092;2022-12-04T11:13:16;102217.28;;;5.74;100.00
29505;BME280;16452;54.174;12.092;2022-12-04T11:15:54;102224.94;;;5.83;100.00
29505;BME280;16452;54.174;12.092;2022-12-04T11:18:48;102228.50;;;5.71;100.00
29505;BME280;16452;54.174;12.092;2022-12-04T11:21:25;102223.22;;;5.88;100.00
29505;BME280;16452;54.174;12.092;2022-12-04T11:23:52;102221.72;;;5.58;100.00
29505;BME280;16452;54.174;12.092;2022-12-04T11:26:36;102223.22;;;5.88;100.00
29505;BME280;16452;54.174;12.092;2022-12-04T11:29:11;102216.41;;;5.73;100.00
29505;BME280;16452;54.174;12.092;2022-12-04T11:31:38;102217.28;;;5.75;100.00
29505;BME280;16452;54.174;12.092;2022-12-04T11:34:07;102211.06;;;5.98;100.00
29505;BME280;16452;54.174;12.092;2022-12-04T11:36:40;102216.19;;;6.02;100.00
29505;BME280;16452;54.174;12.092;2022-12-04T11:39:19;102211.06;;;5.98;100.00
29505;BME280;16452;54.174;12.092;2022-12-04T11:42:15;102213.66;;;5.98;100.00
29505;BME280;16452;54.174;12.092;2022-12-04T11:44:59;102217.91;;;6.02;100.00
29505;BME280;16452;54.174;12.092;2022-12-04T11:47:30;102210.13;;;6.05;100.00
29505;BME280;16452;54.174;12.092;2022-12-04T11:50:13;102211.88;;;6.03;100.00
29505;BME280;16452;54.174;12.092;2022-12-04T12:01:39;102200.59;;;6.08;100.00
29505;BME280;16452;54.174;12.092;2022-12-04T12:04:40;102201.34;;;6.21;100.00
29505;BME280;16452;54.174;12.092;2022-12-04T12:10:41;102200.53;;;6.13;100.00
29505;BME280;16452;54.174;12.092;2022-12-04T12:16:40;102204.72;;;6.26;100.00
29505;BME280;16452;54.174;12.092;2022-12-04T12:22:39;102186.69;;;6.18;100.00
29505;BME280;16452;54.174;12.092;2022-12-04T12:25:27;102180.50;;;6.30;100.00
29505;BME280;16452;54.174;12.092;2022-12-04T12:33:30;102187.47;;;6.28;100.00
29505;BME280;16452;54.174;12.092;2022-12-04T12:36:11;102182.31;;;6.25;100.00
29505;BME280;16452;54.174;12.092;2022-12-04T12:38:50;102184.09;;;6.18;100.00
29505;BME280;16452;54.174;12.092;2022-12-04T12:41:27;102177.19;;;6.21;100.00
29505;BME280;16452;54.174;12.092;2022-12-04T12:44:03;102170.22;;;6.26;100.00
29505;BME280;16452;54.174;12.092;2022-12-04T12:46:48;102173.44;;;6.46;100.00
29505;BME280;16452;54.174;12.092;2022-12-04T12:49:31;102170.09;;;6.36;100.00
29505;BME280;16452;54.174;12.092;2022-12-04T12:52:11;102164.06;;;6.36;100.00
29505;BME280;16452;54.174;12.092;2022-12-04T12:55:21;102154.50;;;6.42;100.00
29505;BME280;16452;54.174;12.092;2022-12-04T12:57:59;102158.09;;;6.29;100.00
29505;BME280;16452;54.174;12.092;2022-12-04T13:00:31;102150.25;;;6.35;100.00
29505;BME280;16452;54.174;12.092;2022-12-04T13:03:39;102149.31;;;6.44;100.00
29505;BME280;16452;54.174;12.092;2022-12-04T13:06:18;102145.94;;;6.37;100.00
29505;BME280;16452;54.174;12.092;2022-12-04T13:09:20;102144.94;;;6.47;100.00
29505;BME280;16452;54.174;12.092;2022-12-04T13:11:52;102155.34;;;6.43;100.00
29505;BME280;16452;54.174;12.092;2022-12-04T13:14:20;102153.69;;;6.37;100.00
29505;BME280;16452;54.174;12.092;2022-12-04T13:28:01;102137.91;;;6.57;100.00
29505;BME280;16452;54.174;12.092;2022-12-04T13:31:06;102146.63;;;6.50;100.00
29505;BME280;16452;54.174;12.092;2022-12-04T13:42:26;102137.50;;;6.23;100.00
29505;BME280;16452;54.174;12.092;2022-12-04T13:44:59;102137.25;;;6.41;100.00
29505;BME280;16452;54.174;12.092;2022-12-04T13:47:33;102139.66;;;6.56;100.00
29505;BME280;16452;54.174;12.092;2022-12-04T13:50:30;102141.28;;;6.62;100.00
29505;BME280;16452;54.174;12.092;2022-12-04T13:52:57;102130.53;;;6.27;100.00
29505;BME280;16452;54.174;12.092;2022-12-04T13:58:04;102131.97;;;6.50;100.00
29505;BME280;16452;54.174;12.092;2022-12-04T14:01:19;102136.31;;;6.47;100.00
29505;BME280;16452;54.174;12.092;2022-12-04T14:03:50;102132.13;;;6.38;100.00
29505;BME280;16452;54.174;12.092;2022-12-04T14:06:41;102137.28;;;6.38;100.00
29505;BME280;16452;54.174;12.092;2022-12-04T14:09:26;102125.91;;;6.51;100.00
29505;BME280;16452;54.174;12.092;2022-12-04T14:11:59;102139.94;;;6.34;100.00
29505;BME280;16452;54.174;12.092;2022-12-04T14:15:23;102144.97;;;6.44;100.00
29505;BME280;16452;54.174;12.092;2022-12-04T14:17:37;102145.06;;;6.38;100.00
29505;BME280;16452;54.174;12.092;2022-12-04T14:20:24;102140.16;;;6.15;100.00
29505;BME280;16452;54.174;12.092;2022-12-04T14:22:51;102149.72;;;6.07;100.00
29505;BME280;16452;54.174;12.092;2022-12-04T14:27:46;102143.47;;;6.28;100.00
29505;BME280;16452;54.174;12.092;2022-12-04T14:30:33;102139.09;;;6.32;100.00
29505;BME280;16452;54.174;12.092;2022-12-04T14:33:21;102144.50;;;6.12;100.00
29505;BME280;16452;54.174;12.092;2022-12-04T14:35:58;102141.81;;;6.21;100.00
29505;BME280;16452;54.174;12.092;2022-12-04T14:38:26;102144.25;;;6.33;100.00
29505;BME280;16452;54.174;12.092;2022-12-04T14:40:54;102148.72;;;6.21;100.00
29505;BME280;16452;54.174;12.092;2022-12-04T14:43:26;102144.56;;;6.06;100.00
29505;BME280;16452;54.174;12.092;2022-12-04T14:51:40;102136.72;;;6.13;100.00
29505;BME280;16452;54.174;12.092;2022-12-04T15:00:00;102148.19;;;5.91;100.00